createdAt,value
2018-11-28T00:01:41.450Z,101572.91
2018-11-28T00:04:09.467Z,101576.82
2018-11-28T00:06:37.530Z,101589.37
2018-11-28T00:09:08.951Z,101595.89
2018-11-28T00:11:37.220Z,101590.25
2018-11-28T00:14:05.227Z,101596.31
2018-11-28T00:16:33.288Z,101587.64
2018-11-28T00:19:01.351Z,101581.17
2018-11-28T00:21:29.435Z,101585.95
2018-11-28T00:23:57.438Z,101579.45
2018-11-28T00:26:25.443Z,101579.45
2018-11-28T00:28:53.439Z,101569.92
2018-11-28T00:31:21.440Z,101569.47
2018-11-28T00:33:49.440Z,101562.99
2018-11-28T00:36:17.427Z,101566.87
2018-11-28T00:38:45.476Z,101570.32
2018-11-28T00:41:13.499Z,101565.16
2018-11-28T00:43:41.507Z,101565.98
2018-11-28T00:46:09.730Z,101567.27
2018-11-28T00:48:37.791Z,101561.66
2018-11-28T00:51:05.787Z,101556.05
2018-11-28T00:53:33.843Z,101562.05
2018-11-28T00:56:01.852Z,101564.63
2018-11-28T00:58:29.867Z,101557.23
2018-11-28T01:00:57.859Z,101558.98
2018-11-28T01:03:25.862Z,101560.27
2018-11-28T01:05:53.877Z,101554.64
2018-11-28T01:08:21.879Z,101553.75
2018-11-28T01:10:49.897Z,101551.19
2018-11-28T01:13:17.884Z,101552.46
2018-11-28T01:15:45.953Z,101553.77
2018-11-28T01:18:14.064Z,101555.92
2018-11-28T01:20:42.078Z,101559.81
2018-11-28T01:23:10.079Z,101559.81
2018-11-28T01:25:38.098Z,101558.94
2018-11-28T01:28:06.187Z,101564.17
2018-11-28T01:30:34.575Z,101563.27
2018-11-28T01:33:02.632Z,101572.75
2018-11-28T01:35:30.642Z,101577.92
2018-11-28T01:37:58.630Z,101565.45
2018-11-28T01:40:26.667Z,101569.30
2018-11-28T01:42:54.743Z,101575.36
2018-11-28T01:45:23.497Z,101568.80
2018-11-28T01:47:51.559Z,101570.52
2018-11-28T01:50:20.478Z,101581.75
2018-11-28T01:52:48.456Z,101577.91
2018-11-28T01:55:17.420Z,101568.87
2018-11-28T01:57:45.439Z,101565.05
2018-11-28T02:00:19.374Z,101564.98
2018-11-28T02:02:48.485Z,101561.95
2018-11-28T02:05:16.514Z,101566.68
2018-11-28T02:07:44.525Z,101562.75
2018-11-28T02:10:13.526Z,101558.05
2018-11-28T02:12:41.550Z,101558.45
2018-11-28T02:15:12.711Z,101554.93
2018-11-28T02:17:40.711Z,101560.58
2018-11-28T02:20:16.734Z,101566.95
2018-11-28T02:22:45.133Z,101554.91
2018-11-28T02:25:15.236Z,101557.00
2018-11-28T02:27:43.395Z,101560.03
2018-11-28T02:30:16.547Z,101560.91
2018-11-28T02:32:45.031Z,101561.82
2018-11-28T02:35:13.935Z,101559.16
2018-11-28T02:37:41.973Z,101567.82
2018-11-28T02:40:11.018Z,101572.57
2018-11-28T02:42:39.050Z,101566.54
2018-11-28T02:45:11.892Z,101567.40
2018-11-28T02:47:39.883Z,101562.17
2018-11-28T02:50:08.136Z,101565.23
2018-11-28T02:52:36.143Z,101563.91
2018-11-28T02:55:04.208Z,101560.03
2018-11-28T02:57:33.234Z,101550.97
2018-11-28T03:00:01.336Z,101550.95
2018-11-28T03:02:29.347Z,101556.98
2018-11-28T03:04:57.415Z,101550.09
2018-11-28T03:07:25.416Z,101548.34
2018-11-28T03:09:53.437Z,101541.00
2018-11-28T03:12:21.543Z,101546.13
2018-11-28T03:14:49.609Z,101545.27
2018-11-28T03:17:22.985Z,101540.59
2018-11-28T03:19:51.071Z,101542.69
2018-11-28T03:22:19.149Z,101543.98
2018-11-28T03:24:47.154Z,101540.95
2018-11-28T03:27:15.168Z,101545.72
2018-11-28T03:29:43.209Z,101541.40
2018-11-28T03:32:11.222Z,101544.00
2018-11-28T03:34:45.288Z,101550.86
2018-11-28T03:37:10.803Z,101544.41
2018-11-28T03:39:39.754Z,101550.45
2018-11-28T03:42:07.758Z,101556.49
2018-11-28T03:44:35.946Z,101549.14
2018-11-28T03:47:04.038Z,101547.91
2018-11-28T03:49:32.126Z,101551.32
2018-11-28T03:52:00.134Z,101545.81
2018-11-28T03:54:28.155Z,101554.41
2018-11-28T03:56:56.183Z,101553.51
2018-11-28T03:59:24.223Z,101551.80
2018-11-28T04:01:52.204Z,101555.27
2018-11-28T04:04:20.223Z,101561.33
2018-11-28T04:06:48.259Z,101559.59
2018-11-28T04:09:16.278Z,101556.60
2018-11-28T04:11:44.283Z,101556.55
2018-11-28T04:14:12.288Z,101557.81
2018-11-28T04:16:40.295Z,101562.63
2018-11-28T04:19:08.307Z,101556.17
2018-11-28T04:21:36.331Z,101557.06
2018-11-28T04:24:04.339Z,101566.11
2018-11-28T04:26:32.356Z,101561.33
2018-11-28T04:29:00.371Z,101561.35
2018-11-28T04:31:28.402Z,101563.95
2018-11-28T04:33:56.432Z,101563.92
2018-11-28T04:36:24.549Z,101559.66
2018-11-28T04:38:52.559Z,101557.08
2018-11-28T04:41:20.584Z,101563.96
2018-11-28T04:43:48.585Z,101561.35
2018-11-28T04:46:16.597Z,101554.48
2018-11-28T04:48:44.660Z,101564.80
2018-11-28T04:51:12.679Z,101564.83
2018-11-28T04:53:40.673Z,101558.39
2018-11-28T04:56:08.681Z,101561.39
2018-11-28T04:58:36.675Z,101558.81
2018-11-28T05:01:04.699Z,101560.06
2018-11-28T05:03:32.695Z,101554.91
2018-11-28T05:06:00.711Z,101550.14
2018-11-28T05:08:28.726Z,101549.29
2018-11-28T05:10:56.735Z,101543.72
2018-11-28T05:13:24.806Z,101548.44
2018-11-28T05:15:52.821Z,101552.34
2018-11-28T05:18:20.842Z,101554.55
2018-11-28T05:20:48.884Z,101552.38
2018-11-28T05:23:16.882Z,101541.97
2018-11-28T05:25:44.980Z,101538.94
2018-11-28T05:28:12.980Z,101540.25
2018-11-28T05:30:40.994Z,101538.58
2018-11-28T05:33:09.101Z,101538.16
2018-11-28T05:35:39.199Z,101542.92
2018-11-28T05:38:11.548Z,101551.55
2018-11-28T05:40:39.576Z,101539.89
2018-11-28T05:43:07.599Z,101546.80
2018-11-28T05:45:35.703Z,101535.55
2018-11-28T05:48:03.785Z,101539.92
2018-11-28T05:50:31.788Z,101536.44
2018-11-28T05:52:59.803Z,101539.87
2018-11-28T05:55:27.880Z,101537.28
2018-11-28T05:57:55.899Z,101532.11
2018-11-28T06:00:27.121Z,101533.88
2018-11-28T06:02:55.174Z,101533.84
2018-11-28T06:05:23.178Z,101539.41
2018-11-28T06:07:51.361Z,101533.38
2018-11-28T06:10:19.386Z,101529.08
2018-11-28T06:12:47.405Z,101527.81
2018-11-28T06:15:15.508Z,101540.30
2018-11-28T06:17:43.520Z,101529.50
2018-11-28T06:20:12.799Z,101538.16
2018-11-28T06:22:40.900Z,101542.02
2018-11-28T06:25:15.963Z,101549.33
2018-11-28T06:27:39.163Z,101549.38
2018-11-28T06:30:11.479Z,101550.23
2018-11-28T06:32:39.543Z,101554.50
2018-11-28T06:35:08.430Z,101547.60
2018-11-28T06:37:36.747Z,101545.00
2018-11-28T06:40:07.553Z,101551.91
2018-11-28T06:42:35.555Z,101551.52
2018-11-28T06:45:03.559Z,101549.33
2018-11-28T06:47:31.607Z,101549.33
2018-11-28T06:49:59.591Z,101546.74
2018-11-28T06:52:27.640Z,101549.73
2018-11-28T06:54:55.643Z,101551.87
2018-11-28T06:57:23.704Z,101557.51
2018-11-28T06:59:51.742Z,101563.52
2018-11-28T07:02:19.746Z,101559.19
2018-11-28T07:04:47.983Z,101555.30
2018-11-28T07:07:15.805Z,101553.98
2018-11-28T07:09:43.824Z,101546.71
2018-11-28T07:12:11.874Z,101554.84
2018-11-28T07:14:39.993Z,101557.00
2018-11-28T07:17:07.991Z,101561.75
2018-11-28T07:19:35.999Z,101567.35
2018-11-28T07:22:03.991Z,101560.45
2018-11-28T07:24:32.047Z,101573.86
2018-11-28T07:27:00.035Z,101574.72
2018-11-28T07:29:28.136Z,101571.30
2018-11-28T07:31:56.144Z,101573.87
2018-11-28T07:34:24.187Z,101581.22
2018-11-28T07:36:52.149Z,101580.78
2018-11-28T07:39:20.163Z,101570.91
2018-11-28T07:41:48.158Z,101572.27
2018-11-28T07:44:16.154Z,101584.80
2018-11-28T07:46:44.147Z,101583.09
2018-11-28T07:49:12.172Z,101574.91
2018-11-28T07:51:40.190Z,101568.48
2018-11-28T07:54:08.199Z,101574.73
2018-11-28T07:56:36.254Z,101576.53
2018-11-28T07:59:04.318Z,101568.25
2018-11-28T08:01:32.374Z,101560.31
2018-11-28T08:04:00.369Z,101567.06
2018-11-28T08:06:28.354Z,101565.09
2018-11-28T08:08:58.262Z,101570.73
2018-11-28T08:11:26.349Z,101570.78
2018-11-28T08:13:54.484Z,101586.58
2018-11-28T08:16:22.491Z,101582.95
2018-11-28T08:18:50.503Z,101574.06
2018-11-28T08:21:18.522Z,101579.04
2018-11-28T08:23:46.507Z,101570.33
2018-11-28T08:26:14.612Z,101568.27
2018-11-28T08:28:42.617Z,101573.64
2018-11-28T08:31:10.847Z,101569.44
2018-11-28T08:33:38.856Z,101574.23
2018-11-28T08:36:06.854Z,101573.48
2018-11-28T08:38:34.835Z,101574.91
2018-11-28T08:41:02.845Z,101570.67
2018-11-28T08:43:30.839Z,101569.41
2018-11-28T08:45:58.844Z,101569.88
2018-11-28T08:48:26.857Z,101562.55
2018-11-28T08:50:54.871Z,101569.53
2018-11-28T08:53:23.987Z,101571.11
2018-11-28T08:55:52.019Z,101570.42
2018-11-28T08:58:20.004Z,101562.44
2018-11-28T09:00:48.031Z,101562.44
2018-11-28T09:03:16.067Z,101573.67
2018-11-28T09:05:44.096Z,101571.06
2018-11-28T09:08:12.088Z,101567.53
2018-11-28T09:10:40.111Z,101568.53
2018-11-28T09:13:08.095Z,101567.20
2018-11-28T09:15:36.160Z,101571.47
2018-11-28T09:18:04.226Z,101569.28
2018-11-28T09:20:32.238Z,101576.45
2018-11-28T09:23:00.353Z,101576.59
2018-11-28T09:25:28.382Z,101572.11
2018-11-28T09:27:57.584Z,101563.40
2018-11-28T09:30:25.688Z,101558.28
2018-11-28T09:32:53.780Z,101562.98
2018-11-28T09:35:21.776Z,101572.11
2018-11-28T09:37:49.781Z,101572.16
2018-11-28T09:40:26.930Z,101567.44
2018-11-28T09:42:56.028Z,101571.28
2018-11-28T09:45:24.114Z,101560.74
2018-11-28T09:47:52.137Z,101568.81
2018-11-28T09:50:21.125Z,101564.49
2018-11-28T09:52:49.143Z,101570.64
2018-11-28T09:55:20.843Z,101562.05
2018-11-28T09:57:48.940Z,101559.38
2018-11-28T10:00:19.521Z,101566.91
2018-11-28T10:02:47.962Z,101550.48
2018-11-28T10:05:21.108Z,101549.59
2018-11-28T10:07:49.154Z,101544.10
2018-11-28T10:10:17.210Z,101538.48
2018-11-28T10:12:45.231Z,101546.52
2018-11-28T10:15:21.979Z,101538.25
2018-11-28T10:17:49.971Z,101535.31
2018-11-28T10:20:18.609Z,101534.73
2018-11-28T10:22:47.087Z,101534.64
2018-11-28T10:25:17.120Z,101524.30
2018-11-28T10:27:48.243Z,101530.06
2018-11-28T10:30:19.294Z,101523.09
2018-11-28T10:32:47.947Z,101523.38
2018-11-28T10:35:15.942Z,101517.55
2018-11-28T10:37:44.034Z,101510.11
2018-11-28T10:40:17.190Z,101507.66
2018-11-28T10:42:45.799Z,101506.36
2018-11-28T10:45:15.003Z,101504.64
2018-11-28T10:47:43.008Z,101503.45
2018-11-28T10:50:13.077Z,101499.92
2018-11-28T10:52:41.073Z,101492.01
2018-11-28T10:55:18.962Z,101498.84
2018-11-28T10:57:46.962Z,101502.75
2018-11-28T11:00:24.227Z,101495.80
2018-11-28T11:02:57.670Z,101492.17
2018-11-28T11:05:31.230Z,101504.41
2018-11-28T11:08:04.807Z,101507.06
2018-11-28T11:10:38.320Z,101504.13
2018-11-28T11:13:12.149Z,101499.05
2018-11-28T11:15:40.251Z,101503.48
2018-11-28T11:18:11.290Z,101494.87
2018-11-28T11:20:39.297Z,101493.19
2018-11-28T11:23:08.423Z,101503.12
2018-11-28T11:25:36.452Z,101488.50
2018-11-28T11:28:04.655Z,101490.39
2018-11-28T11:30:32.796Z,101491.28
2018-11-28T11:33:00.938Z,101479.53
2018-11-28T11:35:29.056Z,101482.17
2018-11-28T11:37:57.202Z,101485.71
2018-11-28T11:40:25.354Z,101483.47
2018-11-28T11:42:53.541Z,101484.64
2018-11-28T11:45:21.671Z,101484.46
2018-11-28T11:47:49.842Z,101483.61
2018-11-28T11:50:18.735Z,101470.53
2018-11-28T11:52:46.892Z,101471.09
2018-11-28T11:55:17.955Z,101467.76
2018-11-28T11:57:46.266Z,101480.38
2018-11-28T12:00:17.655Z,101466.46
2018-11-28T12:02:48.435Z,101462.59
2018-11-28T12:05:16.429Z,101459.55
2018-11-28T12:07:44.495Z,101449.94
2018-11-28T12:10:13.452Z,101444.55
2018-11-28T12:12:41.500Z,101444.13
2018-11-28T12:15:13.414Z,101444.03
2018-11-28T12:17:42.207Z,101439.48
2018-11-28T12:20:18.835Z,101445.66
2018-11-28T12:22:46.867Z,101448.05
2018-11-28T12:25:14.903Z,101451.37
2018-11-28T12:27:42.908Z,101457.20
2018-11-28T12:30:12.198Z,101448.58
2018-11-28T12:32:40.218Z,101457.02
2018-11-28T12:35:10.848Z,101448.80
2018-11-28T12:37:38.970Z,101446.32
2018-11-28T12:40:09.520Z,101442.05
2018-11-28T12:42:37.529Z,101434.20
2018-11-28T12:45:17.650Z,101436.11
2018-11-28T12:47:46.311Z,101434.63
2018-11-28T12:50:23.619Z,101426.80
2018-11-28T12:52:52.551Z,101426.61
2018-11-28T12:55:21.140Z,101431.50
2018-11-28T12:57:49.513Z,101425.52
2018-11-28T13:00:18.567Z,101420.48
2018-11-28T13:02:46.651Z,101419.13
2018-11-28T13:05:18.519Z,101422.70
2018-11-28T13:07:46.519Z,101426.41
2018-11-28T13:10:16.739Z,101426.54
2018-11-28T13:12:45.425Z,101424.31
2018-11-28T13:15:14.387Z,101425.89
2018-11-28T13:17:42.470Z,101420.81
2018-11-28T13:20:11.591Z,101415.12
2018-11-28T13:22:39.707Z,101418.52
2018-11-28T13:25:10.371Z,101417.36
2018-11-28T13:27:38.371Z,101412.14
2018-11-28T13:30:14.943Z,101421.97
2018-11-28T13:32:43.463Z,101415.32
2018-11-28T13:35:13.387Z,101414.40
2018-11-28T13:37:41.949Z,101407.83
2018-11-28T13:40:11.260Z,101410.52
2018-11-28T13:42:39.276Z,101401.70
2018-11-28T13:45:12.880Z,101404.31
2018-11-28T13:47:41.475Z,101395.64
2018-11-28T13:50:10.377Z,101391.33
2018-11-28T13:52:38.402Z,101395.36
2018-11-28T13:55:37.353Z,101388.64
2018-11-28T13:57:39.218Z,101376.46
2018-11-28T14:00:09.047Z,101376.59
2018-11-28T14:02:37.302Z,101378.41
2018-11-28T14:05:09.150Z,101382.45
2018-11-28T14:07:37.135Z,101376.03
2018-11-28T14:10:09.643Z,101378.23
2018-11-28T14:12:37.766Z,101372.58
2018-11-28T14:15:10.222Z,101372.73
2018-11-28T14:17:38.344Z,101364.98
2018-11-28T14:20:08.327Z,101368.28
2018-11-28T14:22:36.369Z,101361.83
2018-11-28T14:27:33.893Z,101355.87
2018-11-28T14:30:01.950Z,101358.98
2018-11-28T14:32:29.994Z,101358.14
2018-11-28T14:34:58.011Z,101358.19
2018-11-28T14:37:26.087Z,101360.45
2018-11-28T14:39:54.119Z,101358.24
2018-11-28T14:42:22.110Z,101355.14
2018-11-28T14:44:50.146Z,101360.05
2018-11-28T14:47:18.171Z,101365.27
2018-11-28T14:49:46.200Z,101365.20
2018-11-28T14:52:14.322Z,101362.09
2018-11-28T14:54:42.336Z,101367.91
2018-11-28T14:57:10.330Z,101357.05
2018-11-28T14:59:40.614Z,101359.60
2018-11-28T15:02:06.641Z,101355.80
2018-11-28T15:04:34.723Z,101347.08
2018-11-28T15:07:02.795Z,101347.98
2018-11-28T15:09:37.178Z,101355.70
2018-11-28T15:12:11.604Z,101350.59
2018-11-28T15:14:36.570Z,101343.28
2018-11-28T15:17:04.655Z,101347.98
2018-11-28T15:19:32.712Z,101338.53
2018-11-28T15:22:00.690Z,101338.92
2018-11-28T15:24:28.741Z,101339.78
2018-11-28T15:26:56.783Z,101336.77
2018-11-28T15:29:24.884Z,101330.71
2018-11-28T15:31:52.905Z,101324.67
2018-11-28T15:34:21.055Z,101321.70
2018-11-28T15:36:49.106Z,101323.11
2018-11-28T15:39:17.119Z,101323.96
2018-11-28T15:41:45.141Z,101316.11
2018-11-28T15:44:13.211Z,101323.06
2018-11-28T15:46:41.228Z,101328.73
2018-11-28T15:49:09.247Z,101333.52
2018-11-28T15:51:37.311Z,101328.67
2018-11-28T15:54:05.323Z,101320.34
2018-11-28T15:56:33.332Z,101322.95
2018-11-28T15:59:01.335Z,101313.86
2018-11-28T16:01:29.426Z,101313.05
2018-11-28T16:03:57.427Z,101317.41
2018-11-28T16:06:25.479Z,101320.42
2018-11-28T16:08:54.898Z,101323.01
2018-11-28T16:11:23.768Z,101312.14
2018-11-28T16:13:51.762Z,101308.23
2018-11-28T16:16:19.773Z,101313.89
2018-11-28T16:18:47.781Z,101310.30
2018-11-28T16:21:15.810Z,101311.63
2018-11-28T16:23:43.800Z,101300.27
2018-11-28T16:26:11.803Z,101302.59
2018-11-28T16:28:39.842Z,101304.29
2018-11-28T16:31:07.843Z,101309.33
2018-11-28T16:33:35.888Z,101302.92
2018-11-28T16:36:03.934Z,101300.84
2018-11-28T16:38:31.993Z,101292.50
2018-11-28T16:41:00.027Z,101286.81
2018-11-28T16:43:28.042Z,101281.54
2018-11-28T16:45:56.066Z,101275.48
2018-11-28T16:48:24.128Z,101280.29
2018-11-28T16:50:52.137Z,101272.54
2018-11-28T16:53:20.158Z,101264.37
2018-11-28T16:55:48.304Z,101260.07
2018-11-28T16:58:16.322Z,101264.84
2018-11-28T17:00:44.655Z,101282.16
2018-11-28T17:03:12.691Z,101288.70
2018-11-28T17:05:40.694Z,101286.46
2018-11-28T17:08:09.468Z,101268.17
2018-11-28T17:10:37.522Z,101270.28
2018-11-28T17:13:06.269Z,101266.38
2018-11-28T17:15:34.278Z,101268.97
2018-11-28T17:18:02.292Z,101263.75
2018-11-28T17:20:30.292Z,101261.56
2018-11-28T17:25:27.114Z,101235.52
2018-11-28T17:27:55.121Z,101235.89
2018-11-28T17:30:25.221Z,101241.13
2018-11-28T17:32:53.216Z,101240.67
2018-11-28T17:35:21.328Z,101230.12
2018-11-28T17:37:49.378Z,101228.36
2018-11-28T17:40:18.419Z,101225.37
2018-11-28T17:42:48.667Z,101222.63
2018-11-28T17:45:17.441Z,101222.44
2018-11-28T17:47:45.521Z,101219.05
2018-11-28T17:50:22.621Z,101217.73
2018-11-28T17:52:55.467Z,101223.34
2018-11-28T17:55:23.752Z,101218.59
2018-11-28T17:57:51.951Z,101228.09
2018-11-28T18:00:20.420Z,101227.65
2018-11-28T18:02:48.436Z,101223.30
2018-11-28T18:05:16.961Z,101222.03
2018-11-28T18:07:45.055Z,101219.43
2018-11-28T18:10:16.402Z,101215.87
2018-11-28T18:12:55.910Z,101210.19
2018-11-28T18:15:24.139Z,101210.20
2018-11-28T18:17:53.463Z,101212.35
2018-11-28T18:20:21.576Z,101218.86
2018-11-28T18:22:49.602Z,101215.02
2018-11-28T18:25:19.710Z,101229.73
2018-11-28T18:27:47.760Z,101222.31
2018-11-28T18:30:15.776Z,101215.02
2018-11-28T18:32:43.803Z,101212.86
2018-11-28T18:35:12.149Z,101218.53
2018-11-28T18:37:40.171Z,101210.20
2018-11-28T18:40:10.615Z,101208.50
2018-11-28T18:42:38.860Z,101193.80
2018-11-28T18:45:18.482Z,101199.37
2018-11-28T18:47:46.231Z,101191.83
2018-11-28T18:50:14.575Z,101198.45
2018-11-28T18:52:42.780Z,101194.44
2018-11-28T18:55:16.582Z,101195.20
2018-11-28T18:57:40.008Z,101188.30
2018-11-28T19:00:12.740Z,101190.36
2018-11-28T19:02:41.207Z,101193.57
2018-11-28T19:05:09.558Z,101196.63
2018-11-28T19:07:37.675Z,101193.90
2018-11-28T19:10:09.626Z,101199.96
2018-11-28T19:12:37.662Z,101194.28
2018-11-28T19:15:08.839Z,101209.06
2018-11-28T19:17:36.984Z,101192.98
2018-11-28T19:20:07.151Z,101185.48
2018-11-28T19:22:35.177Z,101192.39
2018-11-28T19:25:03.287Z,101191.98
2018-11-28T19:27:31.308Z,101191.08
2018-11-28T19:29:59.423Z,101205.03
2018-11-28T19:32:27.534Z,101201.62
2018-11-28T19:34:55.736Z,101195.64
2018-11-28T19:37:23.792Z,101191.67
2018-11-28T19:39:51.833Z,101193.81
2018-11-28T19:42:19.899Z,101190.83
2018-11-28T19:44:47.959Z,101185.69
2018-11-28T19:47:15.971Z,101188.22
2018-11-28T19:49:44.128Z,101190.83
2018-11-28T19:52:12.164Z,101189.52
2018-11-28T19:54:40.239Z,101180.48
2018-11-28T19:57:08.371Z,101176.48
2018-11-28T20:02:05.746Z,101181.70
2018-11-28T20:04:33.853Z,101180.79
2018-11-28T20:07:01.889Z,101187.09
2018-11-28T20:09:29.918Z,101181.87
2018-11-28T20:11:57.986Z,101176.80
2018-11-28T20:14:25.999Z,101166.76
2018-11-28T20:16:54.199Z,101163.06
2018-11-28T20:19:22.335Z,101160.88
2018-11-28T20:21:50.377Z,101158.27
2018-11-28T20:24:18.556Z,101150.42
2018-11-28T20:26:46.750Z,101133.25
2018-11-28T20:29:14.794Z,101128.05
2018-11-28T20:31:42.843Z,101129.69
2018-11-28T20:34:10.874Z,101121.85
2018-11-28T20:36:38.913Z,101130.03
2018-11-28T20:39:08.943Z,101131.19
2018-11-28T20:41:36.973Z,101136.42
2018-11-28T20:44:05.163Z,101133.41
2018-11-28T20:46:33.336Z,101137.70
2018-11-28T20:49:01.425Z,101137.32
2018-11-28T20:51:29.486Z,101139.08
2018-11-28T20:53:57.866Z,101136.87
2018-11-28T20:56:25.932Z,101132.59
2018-11-28T20:58:54.047Z,101124.06
2018-11-28T21:01:22.169Z,101129.42
2018-11-28T21:03:50.182Z,101126.36
2018-11-28T21:06:18.313Z,101120.70
2018-11-28T21:08:46.325Z,101116.65
2018-11-28T21:11:14.334Z,101109.73
2018-11-28T21:13:42.415Z,101104.43
2018-11-28T21:16:10.427Z,101110.36
2018-11-28T21:18:38.527Z,101103.04
2018-11-28T21:21:07.610Z,101095.69
2018-11-28T21:23:35.635Z,101104.75
2018-11-28T21:26:03.722Z,101100.97
2018-11-28T21:28:31.793Z,101089.95
2018-11-28T21:30:59.811Z,101088.70
2018-11-28T21:33:28.146Z,101086.49
2018-11-28T21:35:56.296Z,101089.39
2018-11-28T21:38:24.379Z,101091.52
2018-11-28T21:40:52.534Z,101090.55
2018-11-28T21:43:20.679Z,101090.93
2018-11-28T21:45:48.686Z,101094.42
2018-11-28T21:48:16.708Z,101096.73
2018-11-28T21:50:44.755Z,101087.41
2018-11-28T21:53:12.814Z,101089.62
2018-11-28T21:55:40.837Z,101087.48
2018-11-28T21:58:08.963Z,101085.91
2018-11-28T22:00:37.287Z,101087.30
2018-11-28T22:03:06.681Z,101081.26
2018-11-28T22:05:34.714Z,101082.25
2018-11-28T22:08:02.914Z,101079.62
2018-11-28T22:10:31.234Z,101083.84
2018-11-28T22:12:59.454Z,101088.13
2018-11-28T22:15:27.497Z,101084.39
2018-11-28T22:17:56.591Z,101079.08
2018-11-28T22:20:25.295Z,101070.90
2018-11-28T22:22:53.407Z,101073.96
2018-11-28T22:25:23.306Z,101074.65
2018-11-28T22:27:51.371Z,101076.47
2018-11-28T22:30:21.459Z,101075.52
2018-11-28T22:32:51.543Z,101079.41
2018-11-28T22:35:19.563Z,101069.08
2018-11-28T22:37:47.616Z,101066.00
2018-11-28T22:40:22.808Z,101064.03
2018-11-28T22:42:50.907Z,101069.71
2018-11-28T22:45:20.956Z,101055.16
2018-11-28T22:47:49.007Z,101051.63
2018-11-28T22:50:17.011Z,101050.41
2018-11-28T22:52:45.091Z,101047.72
2018-11-28T22:55:16.052Z,101043.83
2018-11-28T22:57:44.150Z,101047.25
2018-11-28T23:00:14.117Z,101048.77
2018-11-28T23:02:49.334Z,101040.89
2018-11-28T23:05:17.375Z,101044.23
2018-11-28T23:07:45.545Z,101041.81
2018-11-28T23:10:13.551Z,101036.66
2018-11-28T23:12:41.564Z,101017.55
2018-11-28T23:15:09.598Z,101017.66
2018-11-28T23:17:37.609Z,101007.86
2018-11-28T23:20:06.425Z,101007.94
2018-11-28T23:22:34.433Z,101004.81
2018-11-28T23:25:02.494Z,101007.03
2018-11-28T23:27:30.554Z,100997.45
2018-11-28T23:29:58.584Z,100990.64
2018-11-28T23:32:26.584Z,100986.28
2018-11-28T23:34:54.635Z,100973.13
2018-11-28T23:37:22.666Z,100962.87
2018-11-28T23:39:50.668Z,100960.39
2018-11-28T23:42:18.664Z,100965.52
2018-11-28T23:44:46.671Z,100942.60
2018-11-28T23:47:14.679Z,100945.69
2018-11-28T23:49:42.682Z,100948.28
2018-11-28T23:52:10.682Z,100959.02
2018-11-28T23:54:38.718Z,100946.42
2018-11-28T23:57:06.706Z,100956.77
2018-11-28T23:59:34.714Z,100951.86
